About

Name: Hunt Field
Identifier:  LND/KLND
Serves:  Lander, Wyoming
Owner:  City of Lander
Public/Private:  Public
Local Time:  26. Jan 21:17 MST
Description: Hunt Field is a city-owned, public-use airport located one nautical mile south of the central business district of Lander, a city in Fremont County, Wyoming, United States. It is included in the National Plan of Integrated Airport Systems for 2011–2015, which categorized it as a general aviation facility.
Source: Wikipedia

Location

Hunt Field

Runways
Identifier Length (m/ft) Surface
3/21 1,526/5,007 Asphalt

Statistics

Flights Per Day:
0 Flights
Distance: 1,277km (793mi)
Flights Delayed:
0% (0 Flights/Day Delayed)
Average Delay: 23 minutes

Current Weather

 -3 C (Humidity: 79%)
  4kt (7km/h / 4mph) from 220°
  16km (10 mi.)
 METAR KLND 270353Z AUTO 22004KT 10SM CLR M03/M06 A2992 RMK AO2 SLP166 T10281061

Claim Compensation

Claim compensation for your flight delay or cancellation
Flight delays happen, but that doesn’t mean you have to accept them. You may be entitled to as much as €600/$700 in compensation if your flight has been delayed, canceled or overbooked within the last three years.

Current Delays

Departures

N/A

Arrivals

N/A

Destinations

Map

Top Destinations

Airport Flights
per week
Seats
per week
  Friday Harbor (FRD) 0 - 0 0

Airlines & Planes

Top Airlines

Airline Flights
per day
Seats
per day
  Flybe Nordic 0 -

Top Models

model Flights seats